Terminal Aerodrome Forecast
Issued by NWS

Home | Current Version | Previous Version | Text Only | Print | Product List | Glossary On
Versions: 1 2 3 4 5 6 7 8 9 10 11 12 13
000
FTUS46 KSGX 040520
TAFONT
TAF
KONT 040520Z 0406/0512 26008KT P6SM SCT150
     FM041200 VRB04KT 4SM BR SCT006
     FM041600 VRB04KT 6SM HZ SKC
     FM042100 25011G18KT P6SM SKC
     FM050500 VRB05KT 6SM HZ FEW005=

USA.gov is the U.S. government's official web portal to all federal, state and local government web resources and services.